sensor_id;sensor_type;location;lat;lon;timestamp;P1;durP1;ratioP1;P2;durP2;ratioP2
81487;SDS011;70897;52.464;13.428;2023-08-21T00:01:12;19.65;;;12.80;;
81487;SDS011;70897;52.464;13.428;2023-08-21T00:03:57;19.48;;;13.52;;
81487;SDS011;70897;52.464;13.428;2023-08-21T00:06:42;15.73;;;12.48;;
81487;SDS011;70897;52.464;13.428;2023-08-21T00:09:27;17.33;;;12.45;;
81487;SDS011;70897;52.464;13.428;2023-08-21T00:12:12;18.30;;;12.32;;
81487;SDS011;70897;52.464;13.428;2023-08-21T00:14:57;17.73;;;13.35;;
81487;SDS011;70897;52.464;13.428;2023-08-21T00:17:42;18.83;;;12.52;;
81487;SDS011;70897;52.464;13.428;2023-08-21T00:20:27;20.30;;;13.00;;
81487;SDS011;70897;52.464;13.428;2023-08-21T00:23:12;16.88;;;12.85;;
81487;SDS011;70897;52.464;13.428;2023-08-21T00:25:57;16.70;;;13.10;;
81487;SDS011;70897;52.464;13.428;2023-08-21T00:28:42;17.02;;;12.82;;
81487;SDS011;70897;52.464;13.428;2023-08-21T00:31:28;14.20;;;11.25;;
81487;SDS011;70897;52.464;13.428;2023-08-21T00:34:14;17.67;;;11.95;;
81487;SDS011;70897;52.464;13.428;2023-08-21T00:36:59;14.23;;;12.13;;
81487;SDS011;70897;52.464;13.428;2023-08-21T00:39:44;18.40;;;12.43;;
81487;SDS011;70897;52.464;13.428;2023-08-21T00:42:29;16.88;;;11.77;;
81487;SDS011;70897;52.464;13.428;2023-08-21T00:45:14;16.08;;;12.10;;
81487;SDS011;70897;52.464;13.428;2023-08-21T00:47:59;17.02;;;12.40;;
81487;SDS011;70897;52.464;13.428;2023-08-21T00:50:44;17.63;;;13.13;;
81487;SDS011;70897;52.464;13.428;2023-08-21T00:53:30;16.08;;;12.13;;
81487;SDS011;70897;52.464;13.428;2023-08-21T00:56:15;19.67;;;13.23;;
81487;SDS011;70897;52.464;13.428;2023-08-21T00:59:00;15.68;;;12.93;;
81487;SDS011;70897;52.464;13.428;2023-08-21T01:01:45;16.88;;;12.90;;
81487;SDS011;70897;52.464;13.428;2023-08-21T01:04:30;15.23;;;11.27;;
81487;SDS011;70897;52.464;13.428;2023-08-21T01:07:16;17.02;;;12.43;;
81487;SDS011;70897;52.464;13.428;2023-08-21T01:10:07;17.63;;;13.32;;
81487;SDS011;70897;52.464;13.428;2023-08-21T01:13:09;17.35;;;12.32;;
81487;SDS011;70897;52.464;13.428;2023-08-21T01:16:04;16.02;;;12.93;;
81487;SDS011;70897;52.464;13.428;2023-08-21T01:18:51;18.23;;;12.85;;
81487;SDS011;70897;52.464;13.428;2023-08-21T01:21:38;21.48;;;12.63;;
81487;SDS011;70897;52.464;13.428;2023-08-21T01:24:23;16.40;;;12.63;;
81487;SDS011;70897;52.464;13.428;2023-08-21T01:27:12;19.08;;;12.65;;
81487;SDS011;70897;52.464;13.428;2023-08-21T01:30:00;18.27;;;13.57;;
81487;SDS011;70897;52.464;13.428;2023-08-21T01:33:00;18.27;;;13.05;;
81487;SDS011;70897;52.464;13.428;2023-08-21T01:38:37;20.10;;;12.45;;
81487;SDS011;70897;52.464;13.428;2023-08-21T01:41:23;17.45;;;12.57;;
81487;SDS011;70897;52.464;13.428;2023-08-21T01:44:09;18.65;;;12.98;;
81487;SDS011;70897;52.464;13.428;2023-08-21T01:46:54;20.20;;;13.40;;
81487;SDS011;70897;52.464;13.428;2023-08-21T01:49:39;16.13;;;12.27;;
81487;SDS011;70897;52.464;13.428;2023-08-21T01:52:24;18.52;;;11.82;;
81487;SDS011;70897;52.464;13.428;2023-08-21T01:55:11;15.40;;;12.10;;
81487;SDS011;70897;52.464;13.428;2023-08-21T01:57:56;18.67;;;12.80;;
81487;SDS011;70897;52.464;13.428;2023-08-21T02:00:41;15.60;;;12.65;;
81487;SDS011;70897;52.464;13.428;2023-08-21T02:03:29;21.27;;;12.55;;
81487;SDS011;70897;52.464;13.428;2023-08-21T02:06:15;16.15;;;11.65;;
81487;SDS011;70897;52.464;13.428;2023-08-21T02:09:00;17.98;;;12.55;;
81487;SDS011;70897;52.464;13.428;2023-08-21T02:11:45;16.98;;;12.45;;
81487;SDS011;70897;52.464;13.428;2023-08-21T02:14:30;15.95;;;12.20;;
81487;SDS011;70897;52.464;13.428;2023-08-21T02:17:15;14.63;;;11.90;;
81487;SDS011;70897;52.464;13.428;2023-08-21T02:20:01;18.23;;;12.45;;
81487;SDS011;70897;52.464;13.428;2023-08-21T02:22:46;14.65;;;11.75;;
81487;SDS011;70897;52.464;13.428;2023-08-21T02:25:31;13.75;;;11.73;;
81487;SDS011;70897;52.464;13.428;2023-08-21T02:28:16;18.25;;;11.98;;
81487;SDS011;70897;52.464;13.428;2023-08-21T02:31:02;17.27;;;11.18;;
81487;SDS011;70897;52.464;13.428;2023-08-21T02:33:47;16.45;;;11.90;;
81487;SDS011;70897;52.464;13.428;2023-08-21T02:36:34;13.48;;;11.38;;
81487;SDS011;70897;52.464;13.428;2023-08-21T02:39:19;14.82;;;11.18;;
81487;SDS011;70897;52.464;13.428;2023-08-21T02:42:04;15.40;;;11.07;;
81487;SDS011;70897;52.464;13.428;2023-08-21T02:44:49;18.73;;;11.45;;
81487;SDS011;70897;52.464;13.428;2023-08-21T02:47:35;15.20;;;10.98;;
81487;SDS011;70897;52.464;13.428;2023-08-21T02:50:23;17.70;;;11.60;;
81487;SDS011;70897;52.464;13.428;2023-08-21T02:53:08;12.93;;;10.63;;
81487;SDS011;70897;52.464;13.428;2023-08-21T02:55:53;21.65;;;11.82;;
81487;SDS011;70897;52.464;13.428;2023-08-21T02:58:38;15.65;;;11.07;;
81487;SDS011;70897;52.464;13.428;2023-08-21T03:01:23;15.82;;;10.93;;
81487;SDS011;70897;52.464;13.428;2023-08-21T03:04:09;18.15;;;11.00;;
81487;SDS011;70897;52.464;13.428;2023-08-21T03:06:54;16.08;;;11.35;;
81487;SDS011;70897;52.464;13.428;2023-08-21T03:09:39;14.55;;;10.48;;
81487;SDS011;70897;52.464;13.428;2023-08-21T03:12:25;12.95;;;10.23;;
81487;SDS011;70897;52.464;13.428;2023-08-21T03:15:10;17.15;;;10.65;;
81487;SDS011;70897;52.464;13.428;2023-08-21T03:17:55;16.20;;;11.13;;
81487;SDS011;70897;52.464;13.428;2023-08-21T03:20:46;15.95;;;11.63;;
81487;SDS011;70897;52.464;13.428;2023-08-21T03:23:31;14.10;;;10.10;;
81487;SDS011;70897;52.464;13.428;2023-08-21T03:26:17;16.10;;;10.48;;
81487;SDS011;70897;52.464;13.428;2023-08-21T03:29:02;17.20;;;10.65;;
81487;SDS011;70897;52.464;13.428;2023-08-21T03:31:52;14.68;;;10.30;;
81487;SDS011;70897;52.464;13.428;2023-08-21T03:34:37;13.13;;;9.70;;
81487;SDS011;70897;52.464;13.428;2023-08-21T03:37:23;13.68;;;9.93;;
81487;SDS011;70897;52.464;13.428;2023-08-21T03:40:08;13.38;;;10.00;;
81487;SDS011;70897;52.464;13.428;2023-08-21T03:42:53;16.42;;;10.15;;
81487;SDS011;70897;52.464;13.428;2023-08-21T03:45:39;13.07;;;9.73;;
81487;SDS011;70897;52.464;13.428;2023-08-21T03:48:25;11.57;;;9.50;;
81487;SDS011;70897;52.464;13.428;2023-08-21T03:51:10;12.98;;;10.02;;
81487;SDS011;70897;52.464;13.428;2023-08-21T03:53:55;13.88;;;9.52;;
81487;SDS011;70897;52.464;13.428;2023-08-21T03:56:41;13.40;;;9.57;;
81487;SDS011;70897;52.464;13.428;2023-08-21T03:59:26;12.82;;;9.80;;
81487;SDS011;70897;52.464;13.428;2023-08-21T04:02:14;12.18;;;9.68;;
81487;SDS011;70897;52.464;13.428;2023-08-21T04:04:59;13.10;;;9.30;;
81487;SDS011;70897;52.464;13.428;2023-08-21T04:07:44;12.20;;;9.02;;
81487;SDS011;70897;52.464;13.428;2023-08-21T04:10:29;11.82;;;8.75;;
81487;SDS011;70897;52.464;13.428;2023-08-21T04:13:14;12.98;;;9.02;;
81487;SDS011;70897;52.464;13.428;2023-08-21T04:15:59;11.05;;;8.55;;
81487;SDS011;70897;52.464;13.428;2023-08-21T04:18:44;13.23;;;8.98;;
81487;SDS011;70897;52.464;13.428;2023-08-21T04:21:29;14.23;;;9.30;;
81487;SDS011;70897;52.464;13.428;2023-08-21T04:24:15;12.20;;;9.68;;
81487;SDS011;70897;52.464;13.428;2023-08-21T04:26:59;13.50;;;9.60;;
81487;SDS011;70897;52.464;13.428;2023-08-21T04:29:44;15.15;;;10.38;;
81487;SDS011;70897;52.464;13.428;2023-08-21T04:32:30;14.70;;;9.43;;
81487;SDS011;70897;52.464;13.428;2023-08-21T04:35:15;13.95;;;8.93;;
81487;SDS011;70897;52.464;13.428;2023-08-21T04:38:01;13.82;;;10.02;;
81487;SDS011;70897;52.464;13.428;2023-08-21T04:40:46;15.32;;;11.15;;
81487;SDS011;70897;52.464;13.428;2023-08-21T04:43:32;14.63;;;9.85;;
81487;SDS011;70897;52.464;13.428;2023-08-21T04:46:17;12.52;;;9.57;;
81487;SDS011;70897;52.464;13.428;2023-08-21T04:49:03;12.82;;;9.73;;
81487;SDS011;70897;52.464;13.428;2023-08-21T04:51:48;10.48;;;9.30;;
81487;SDS011;70897;52.464;13.428;2023-08-21T04:54:33;15.13;;;9.75;;
81487;SDS011;70897;52.464;13.428;2023-08-21T04:57:18;15.40;;;8.98;;
81487;SDS011;70897;52.464;13.428;2023-08-21T05:00:05;13.00;;;9.38;;
81487;SDS011;70897;52.464;13.428;2023-08-21T05:02:55;16.15;;;10.00;;
81487;SDS011;70897;52.464;13.428;2023-08-21T05:05:41;12.57;;;9.25;;
81487;SDS011;70897;52.464;13.428;2023-08-21T05:08:27;12.65;;;9.63;;
81487;SDS011;70897;52.464;13.428;2023-08-21T05:11:12;19.23;;;9.88;;
81487;SDS011;70897;52.464;13.428;2023-08-21T05:14:00;13.60;;;9.88;;
81487;SDS011;70897;52.464;13.428;2023-08-21T05:16:45;13.70;;;8.80;;
81487;SDS011;70897;52.464;13.428;2023-08-21T05:19:30;13.48;;;9.20;;
81487;SDS011;70897;52.464;13.428;2023-08-21T05:22:15;11.45;;;8.65;;
81487;SDS011;70897;52.464;13.428;2023-08-21T05:25:00;13.30;;;9.57;;
81487;SDS011;70897;52.464;13.428;2023-08-21T05:27:45;10.80;;;8.77;;
81487;SDS011;70897;52.464;13.428;2023-08-21T05:30:30;10.85;;;8.73;;
81487;SDS011;70897;52.464;13.428;2023-08-21T05:33:15;15.35;;;8.48;;
81487;SDS011;70897;52.464;13.428;2023-08-21T05:36:02;10.15;;;8.15;;
81487;SDS011;70897;52.464;13.428;2023-08-21T05:38:47;12.50;;;8.07;;
81487;SDS011;70897;52.464;13.428;2023-08-21T05:41:33;12.43;;;7.88;;
81487;SDS011;70897;52.464;13.428;2023-08-21T05:44:18;8.48;;;7.32;;
81487;SDS011;70897;52.464;13.428;2023-08-21T05:47:03;14.98;;;7.50;;
81487;SDS011;70897;52.464;13.428;2023-08-21T05:49:48;9.77;;;7.30;;
81487;SDS011;70897;52.464;13.428;2023-08-21T05:52:34;12.48;;;7.68;;
81487;SDS011;70897;52.464;13.428;2023-08-21T05:55:20;11.38;;;7.78;;
81487;SDS011;70897;52.464;13.428;2023-08-21T05:58:05;12.80;;;8.43;;
81487;SDS011;70897;52.464;13.428;2023-08-21T06:00:50;11.25;;;7.93;;
81487;SDS011;70897;52.464;13.428;2023-08-21T06:03:35;12.63;;;7.53;;
81487;SDS011;70897;52.464;13.428;2023-08-21T06:06:33;12.10;;;8.10;;
81487;SDS011;70897;52.464;13.428;2023-08-21T06:09:19;11.05;;;7.70;;
81487;SDS011;70897;52.464;13.428;2023-08-21T06:12:04;9.77;;;7.97;;
81487;SDS011;70897;52.464;13.428;2023-08-21T06:14:51;10.98;;;7.68;;
81487;SDS011;70897;52.464;13.428;2023-08-21T06:17:36;13.35;;;7.55;;
81487;SDS011;70897;52.464;13.428;2023-08-21T06:20:22;9.10;;;7.45;;
81487;SDS011;70897;52.464;13.428;2023-08-21T06:23:06;10.55;;;7.10;;
81487;SDS011;70897;52.464;13.428;2023-08-21T06:25:52;10.65;;;7.60;;
81487;SDS011;70897;52.464;13.428;2023-08-21T06:28:40;8.65;;;6.63;;
81487;SDS011;70897;52.464;13.428;2023-08-21T06:31:25;8.50;;;6.85;;
81487;SDS011;70897;52.464;13.428;2023-08-21T06:34:10;11.18;;;7.22;;
81487;SDS011;70897;52.464;13.428;2023-08-21T06:36:55;14.10;;;7.43;;
81487;SDS011;70897;52.464;13.428;2023-08-21T06:39:40;9.02;;;7.05;;
81487;SDS011;70897;52.464;13.428;2023-08-21T06:42:25;9.32;;;7.43;;
81487;SDS011;70897;52.464;13.428;2023-08-21T06:45:11;9.40;;;7.43;;
81487;SDS011;70897;52.464;13.428;2023-08-21T06:47:56;10.23;;;7.32;;
81487;SDS011;70897;52.464;13.428;2023-08-21T06:50:41;13.75;;;8.65;;
81487;SDS011;70897;52.464;13.428;2023-08-21T06:53:26;9.65;;;8.20;;
81487;SDS011;70897;52.464;13.428;2023-08-21T06:56:11;12.50;;;8.10;;
81487;SDS011;70897;52.464;13.428;2023-08-21T06:58:56;12.60;;;8.20;;
81487;SDS011;70897;52.464;13.428;2023-08-21T07:01:41;8.73;;;7.00;;
81487;SDS011;70897;52.464;13.428;2023-08-21T07:04:26;12.23;;;6.07;;
81487;SDS011;70897;52.464;13.428;2023-08-21T07:07:11;8.05;;;5.50;;
81487;SDS011;70897;52.464;13.428;2023-08-21T07:09:56;7.60;;;4.85;;
81487;SDS011;70897;52.464;13.428;2023-08-21T07:12:41;7.00;;;4.80;;
81487;SDS011;70897;52.464;13.428;2023-08-21T07:15:26;12.20;;;5.30;;
81487;SDS011;70897;52.464;13.428;2023-08-21T07:18:11;5.97;;;4.90;;
81487;SDS011;70897;52.464;13.428;2023-08-21T07:20:57;7.40;;;4.95;;
81487;SDS011;70897;52.464;13.428;2023-08-21T07:23:42;8.50;;;5.22;;
81487;SDS011;70897;52.464;13.428;2023-08-21T07:26:27;6.68;;;4.93;;
81487;SDS011;70897;52.464;13.428;2023-08-21T07:29:13;13.23;;;5.47;;
81487;SDS011;70897;52.464;13.428;2023-08-21T07:31:58;6.38;;;5.10;;
81487;SDS011;70897;52.464;13.428;2023-08-21T07:34:43;8.25;;;5.55;;
81487;SDS011;70897;52.464;13.428;2023-08-21T07:37:28;10.73;;;5.78;;
81487;SDS011;70897;52.464;13.428;2023-08-21T07:40:13;7.47;;;5.22;;
81487;SDS011;70897;52.464;13.428;2023-08-21T07:42:58;9.05;;;5.72;;
81487;SDS011;70897;52.464;13.428;2023-08-21T07:45:43;6.90;;;5.03;;
81487;SDS011;70897;52.464;13.428;2023-08-21T07:48:28;11.85;;;5.22;;
81487;SDS011;70897;52.464;13.428;2023-08-21T07:51:13;12.02;;;4.38;;
81487;SDS011;70897;52.464;13.428;2023-08-21T07:53:58;10.13;;;4.45;;
81487;SDS011;70897;52.464;13.428;2023-08-21T07:56:43;7.03;;;4.18;;
81487;SDS011;70897;52.464;13.428;2023-08-21T07:59:28;7.45;;;3.60;;
81487;SDS011;70897;52.464;13.428;2023-08-21T08:02:13;14.65;;;3.92;;
81487;SDS011;70897;52.464;13.428;2023-08-21T08:04:59;11.30;;;3.80;;
81487;SDS011;70897;52.464;13.428;2023-08-21T08:07:44;9.05;;;4.10;;
81487;SDS011;70897;52.464;13.428;2023-08-21T08:10:30;9.35;;;4.00;;
81487;SDS011;70897;52.464;13.428;2023-08-21T08:13:14;7.28;;;3.45;;
81487;SDS011;70897;52.464;13.428;2023-08-21T08:16:00;7.70;;;3.22;;
81487;SDS011;70897;52.464;13.428;2023-08-21T08:18:45;9.60;;;3.17;;
81487;SDS011;70897;52.464;13.428;2023-08-21T08:21:30;8.18;;;3.20;;
81487;SDS011;70897;52.464;13.428;2023-08-21T08:24:15;7.88;;;2.95;;
81487;SDS011;70897;52.464;13.428;2023-08-21T08:27:00;5.43;;;2.78;;
81487;SDS011;70897;52.464;13.428;2023-08-21T08:29:46;7.22;;;2.85;;
81487;SDS011;70897;52.464;13.428;2023-08-21T08:32:31;14.98;;;8.63;;
81487;SDS011;70897;52.464;13.428;2023-08-21T08:35:17;24.98;;;13.82;;
81487;SDS011;70897;52.464;13.428;2023-08-21T08:38:02;8.52;;;3.47;;
81487;SDS011;70897;52.464;13.428;2023-08-21T08:40:47;4.88;;;2.55;;
81487;SDS011;70897;52.464;13.428;2023-08-21T08:43:35;4.82;;;3.05;;
81487;SDS011;70897;52.464;13.428;2023-08-21T08:46:24;6.60;;;2.50;;
81487;SDS011;70897;52.464;13.428;2023-08-21T08:49:09;5.18;;;2.63;;
81487;SDS011;70897;52.464;13.428;2023-08-21T08:51:55;6.07;;;2.80;;
81487;SDS011;70897;52.464;13.428;2023-08-21T08:54:42;7.00;;;2.80;;
81487;SDS011;70897;52.464;13.428;2023-08-21T08:57:27;5.47;;;2.90;;
81487;SDS011;70897;52.464;13.428;2023-08-21T09:00:12;6.03;;;2.70;;
81487;SDS011;70897;52.464;13.428;2023-08-21T09:02:58;4.78;;;2.78;;
81487;SDS011;70897;52.464;13.428;2023-08-21T09:05:43;7.57;;;2.60;;
81487;SDS011;70897;52.464;13.428;2023-08-21T09:08:29;9.68;;;6.63;;
81487;SDS011;70897;52.464;13.428;2023-08-21T09:11:14;5.10;;;2.47;;
81487;SDS011;70897;52.464;13.428;2023-08-21T09:14:01;4.97;;;2.13;;
81487;SDS011;70897;52.464;13.428;2023-08-21T09:16:58;3.75;;;1.77;;
81487;SDS011;70897;52.464;13.428;2023-08-21T09:19:48;4.22;;;1.50;;
81487;SDS011;70897;52.464;13.428;2023-08-21T09:22:33;4.00;;;1.60;;
81487;SDS011;70897;52.464;13.428;2023-08-21T09:25:18;3.30;;;1.10;;
81487;SDS011;70897;52.464;13.428;2023-08-21T09:28:04;3.13;;;1.50;;
81487;SDS011;70897;52.464;13.428;2023-08-21T09:30:51;2.15;;;1.30;;
81487;SDS011;70897;52.464;13.428;2023-08-21T09:33:36;4.25;;;1.40;;
81487;SDS011;70897;52.464;13.428;2023-08-21T09:36:22;3.60;;;1.33;;
81487;SDS011;70897;52.464;13.428;2023-08-21T09:39:11;3.38;;;1.40;;
81487;SDS011;70897;52.464;13.428;2023-08-21T09:42:05;3.95;;;1.23;;
81487;SDS011;70897;52.464;13.428;2023-08-21T09:44:51;3.47;;;1.20;;
81487;SDS011;70897;52.464;13.428;2023-08-21T09:47:36;4.38;;;1.27;;
81487;SDS011;70897;52.464;13.428;2023-08-21T09:50:23;3.47;;;1.13;;
81487;SDS011;70897;52.464;13.428;2023-08-21T09:53:09;4.25;;;1.10;;
81487;SDS011;70897;52.464;13.428;2023-08-21T09:56:14;2.30;;;1.15;;
81487;SDS011;70897;52.464;13.428;2023-08-21T09:59:03;4.72;;;1.20;;
81487;SDS011;70897;52.464;13.428;2023-08-21T10:01:49;3.15;;;1.23;;
81487;SDS011;70897;52.464;13.428;2023-08-21T10:04:36;3.13;;;1.30;;
81487;SDS011;70897;52.464;13.428;2023-08-21T10:07:24;3.47;;;1.30;;
81487;SDS011;70897;52.464;13.428;2023-08-21T10:10:11;6.55;;;1.70;;
81487;SDS011;70897;52.464;13.428;2023-08-21T10:12:57;4.38;;;1.38;;
81487;SDS011;70897;52.464;13.428;2023-08-21T10:15:43;3.65;;;1.20;;
81487;SDS011;70897;52.464;13.428;2023-08-21T10:18:30;5.60;;;1.20;;
81487;SDS011;70897;52.464;13.428;2023-08-21T10:21:18;3.58;;;1.35;;
81487;SDS011;70897;52.464;13.428;2023-08-21T10:24:04;4.75;;;1.45;;
81487;SDS011;70897;52.464;13.428;2023-08-21T10:26:49;3.58;;;1.45;;
81487;SDS011;70897;52.464;13.428;2023-08-21T10:29:34;4.35;;;1.58;;
81487;SDS011;70897;52.464;13.428;2023-08-21T10:32:21;7.28;;;4.45;;
81487;SDS011;70897;52.464;13.428;2023-08-21T10:35:08;5.30;;;1.67;;
81487;SDS011;70897;52.464;13.428;2023-08-21T10:41:08;4.35;;;1.80;;
81487;SDS011;70897;52.464;13.428;2023-08-21T10:43:55;4.68;;;1.60;;
81487;SDS011;70897;52.464;13.428;2023-08-21T10:46:49;3.60;;;1.80;;
81487;SDS011;70897;52.464;13.428;2023-08-21T10:49:35;3.65;;;1.38;;
81487;SDS011;70897;52.464;13.428;2023-08-21T10:52:21;3.80;;;1.48;;
81487;SDS011;70897;52.464;13.428;2023-08-21T10:55:11;3.40;;;1.67;;
81487;SDS011;70897;52.464;13.428;2023-08-21T10:57:56;3.90;;;1.67;;
81487;SDS011;70897;52.464;13.428;2023-08-21T11:00:42;3.65;;;1.45;;
81487;SDS011;70897;52.464;13.428;2023-08-21T11:03:27;6.68;;;1.60;;
81487;SDS011;70897;52.464;13.428;2023-08-21T11:06:12;3.75;;;1.30;;
81487;SDS011;70897;52.464;13.428;2023-08-21T11:08:57;3.35;;;1.33;;
81487;SDS011;70897;52.464;13.428;2023-08-21T11:11:43;6.85;;;1.35;;
81487;SDS011;70897;52.464;13.428;2023-08-21T11:14:28;4.43;;;1.20;;
81487;SDS011;70897;52.464;13.428;2023-08-21T11:17:13;3.08;;;1.30;;
81487;SDS011;70897;52.464;13.428;2023-08-21T11:20:00;4.32;;;1.33;;
81487;SDS011;70897;52.464;13.428;2023-08-21T11:22:47;3.08;;;1.27;;
81487;SDS011;70897;52.464;13.428;2023-08-21T11:25:32;6.15;;;1.58;;
81487;SDS011;70897;52.464;13.428;2023-08-21T11:28:17;6.43;;;1.65;;
81487;SDS011;70897;52.464;13.428;2023-08-21T11:31:02;10.68;;;1.75;;
81487;SDS011;70897;52.464;13.428;2023-08-21T11:33:50;21.95;;;1.90;;
81487;SDS011;70897;52.464;13.428;2023-08-21T11:36:35;4.45;;;1.60;;
81487;SDS011;70897;52.464;13.428;2023-08-21T11:39:20;18.00;;;1.85;;
81487;SDS011;70897;52.464;13.428;2023-08-21T11:42:08;14.32;;;1.65;;
81487;SDS011;70897;52.464;13.428;2023-08-21T11:44:59;7.53;;;1.48;;
81487;SDS011;70897;52.464;13.428;2023-08-21T11:47:45;4.75;;;1.30;;
81487;SDS011;70897;52.464;13.428;2023-08-21T11:50:30;3.67;;;1.38;;
81487;SDS011;70897;52.464;13.428;2023-08-21T11:53:15;4.20;;;1.30;;
81487;SDS011;70897;52.464;13.428;2023-08-21T11:56:00;5.78;;;1.20;;
81487;SDS011;70897;52.464;13.428;2023-08-21T11:58:46;4.50;;;1.20;;
81487;SDS011;70897;52.464;13.428;2023-08-21T12:01:32;2.47;;;1.10;;
81487;SDS011;70897;52.464;13.428;2023-08-21T12:04:18;2.60;;;1.08;;
81487;SDS011;70897;52.464;13.428;2023-08-21T12:07:03;5.68;;;1.23;;
81487;SDS011;70897;52.464;13.428;2023-08-21T12:09:48;1.70;;;1.10;;
81487;SDS011;70897;52.464;13.428;2023-08-21T12:12:34;3.22;;;1.20;;
81487;SDS011;70897;52.464;13.428;2023-08-21T12:15:19;2.50;;;1.20;;
81487;SDS011;70897;52.464;13.428;2023-08-21T12:18:04;3.25;;;1.35;;
81487;SDS011;70897;52.464;13.428;2023-08-21T12:20:48;6.38;;;1.38;;
81487;SDS011;70897;52.464;13.428;2023-08-21T12:23:34;4.63;;;1.20;;
81487;SDS011;70897;52.464;13.428;2023-08-21T12:26:19;4.00;;;1.20;;
81487;SDS011;70897;52.464;13.428;2023-08-21T12:29:06;9.15;;;1.13;;
81487;SDS011;70897;52.464;13.428;2023-08-21T12:31:51;6.22;;;1.48;;
81487;SDS011;70897;52.464;13.428;2023-08-21T12:34:36;3.63;;;1.33;;
81487;SDS011;70897;52.464;13.428;2023-08-21T12:37:22;9.80;;;1.70;;
81487;SDS011;70897;52.464;13.428;2023-08-21T12:40:07;13.10;;;1.70;;
81487;SDS011;70897;52.464;13.428;2023-08-21T12:42:53;10.80;;;1.75;;
81487;SDS011;70897;52.464;13.428;2023-08-21T12:45:38;13.48;;;5.72;;
81487;SDS011;70897;52.464;13.428;2023-08-21T12:48:23;7.28;;;3.85;;
81487;SDS011;70897;52.464;13.428;2023-08-21T12:51:08;6.07;;;2.00;;
81487;SDS011;70897;52.464;13.428;2023-08-21T12:53:53;9.45;;;1.88;;
81487;SDS011;70897;52.464;13.428;2023-08-21T12:56:38;10.30;;;1.45;;
81487;SDS011;70897;52.464;13.428;2023-08-21T12:59:24;2.28;;;1.05;;
81487;SDS011;70897;52.464;13.428;2023-08-21T13:02:09;2.45;;;1.20;;
81487;SDS011;70897;52.464;13.428;2023-08-21T13:04:54;8.60;;;5.13;;
81487;SDS011;70897;52.464;13.428;2023-08-21T13:07:39;5.95;;;3.05;;
81487;SDS011;70897;52.464;13.428;2023-08-21T13:10:25;2.95;;;1.20;;
81487;SDS011;70897;52.464;13.428;2023-08-21T13:13:10;3.60;;;1.30;;
81487;SDS011;70897;52.464;13.428;2023-08-21T13:15:55;3.08;;;1.10;;
81487;SDS011;70897;52.464;13.428;2023-08-21T13:18:40;3.17;;;1.30;;
81487;SDS011;70897;52.464;13.428;2023-08-21T13:21:25;5.07;;;1.40;;
81487;SDS011;70897;52.464;13.428;2023-08-21T13:24:10;2.53;;;1.10;;
81487;SDS011;70897;52.464;13.428;2023-08-21T13:26:55;5.05;;;1.20;;
81487;SDS011;70897;52.464;13.428;2023-08-21T13:29:40;3.53;;;1.13;;
81487;SDS011;70897;52.464;13.428;2023-08-21T13:32:25;3.22;;;1.20;;
81487;SDS011;70897;52.464;13.428;2023-08-21T13:35:10;2.67;;;0.88;;
81487;SDS011;70897;52.464;13.428;2023-08-21T13:37:55;5.10;;;1.35;;
81487;SDS011;70897;52.464;13.428;2023-08-21T13:40:40;4.28;;;1.40;;
81487;SDS011;70897;52.464;13.428;2023-08-21T13:43:25;3.63;;;1.20;;
81487;SDS011;70897;52.464;13.428;2023-08-21T13:46:11;3.63;;;1.10;;
81487;SDS011;70897;52.464;13.428;2023-08-21T13:48:56;4.75;;;1.20;;
81487;SDS011;70897;52.464;13.428;2023-08-21T13:51:41;2.65;;;1.10;;
81487;SDS011;70897;52.464;13.428;2023-08-21T13:54:26;3.78;;;1.10;;
81487;SDS011;70897;52.464;13.428;2023-08-21T13:57:12;17.20;;;14.75;;
81487;SDS011;70897;52.464;13.428;2023-08-21T13:59:57;2.67;;;1.10;;
81487;SDS011;70897;52.464;13.428;2023-08-21T14:02:43;3.08;;;1.10;;
81487;SDS011;70897;52.464;13.428;2023-08-21T14:05:28;3.83;;;1.10;;
81487;SDS011;70897;52.464;13.428;2023-08-21T14:08:15;6.63;;;2.83;;
81487;SDS011;70897;52.464;13.428;2023-08-21T14:11:00;6.25;;;2.95;;
81487;SDS011;70897;52.464;13.428;2023-08-21T14:13:45;4.50;;;2.60;;
81487;SDS011;70897;52.464;13.428;2023-08-21T14:16:30;2.67;;;0.90;;
81487;SDS011;70897;52.464;13.428;2023-08-21T14:19:15;2.70;;;1.30;;
81487;SDS011;70897;52.464;13.428;2023-08-21T14:22:00;3.90;;;1.25;;
81487;SDS011;70897;52.464;13.428;2023-08-21T14:24:45;5.10;;;0.98;;
81487;SDS011;70897;52.464;13.428;2023-08-21T14:27:31;3.08;;;1.08;;
81487;SDS011;70897;52.464;13.428;2023-08-21T14:30:16;2.40;;;1.00;;
81487;SDS011;70897;52.464;13.428;2023-08-21T14:33:01;3.42;;;1.08;;
81487;SDS011;70897;52.464;13.428;2023-08-21T14:35:46;4.03;;;1.10;;
81487;SDS011;70897;52.464;13.428;2023-08-21T14:38:31;2.80;;;1.00;;
81487;SDS011;70897;52.464;13.428;2023-08-21T14:41:16;2.63;;;0.95;;
81487;SDS011;70897;52.464;13.428;2023-08-21T14:44:02;4.25;;;1.10;;
81487;SDS011;70897;52.464;13.428;2023-08-21T14:46:47;2.95;;;1.15;;
81487;SDS011;70897;52.464;13.428;2023-08-21T14:49:32;2.80;;;0.80;;
81487;SDS011;70897;52.464;13.428;2023-08-21T14:52:17;3.47;;;1.15;;
81487;SDS011;70897;52.464;13.428;2023-08-21T14:55:02;3.78;;;1.10;;
81487;SDS011;70897;52.464;13.428;2023-08-21T14:57:48;4.30;;;1.20;;
81487;SDS011;70897;52.464;13.428;2023-08-21T15:00:33;5.18;;;1.38;;
81487;SDS011;70897;52.464;13.428;2023-08-21T15:03:18;5.72;;;2.30;;
81487;SDS011;70897;52.464;13.428;2023-08-21T15:06:03;11.75;;;4.57;;
81487;SDS011;70897;52.464;13.428;2023-08-21T15:08:48;16.25;;;11.38;;
81487;SDS011;70897;52.464;13.428;2023-08-21T15:11:34;4.22;;;1.30;;
81487;SDS011;70897;52.464;13.428;2023-08-21T15:14:19;5.72;;;1.40;;
81487;SDS011;70897;52.464;13.428;2023-08-21T15:17:04;3.50;;;1.13;;
81487;SDS011;70897;52.464;13.428;2023-08-21T15:19:49;5.32;;;1.95;;
81487;SDS011;70897;52.464;13.428;2023-08-21T15:22:34;3.88;;;1.23;;
81487;SDS011;70897;52.464;13.428;2023-08-21T15:25:19;2.85;;;1.33;;
81487;SDS011;70897;52.464;13.428;2023-08-21T15:28:05;3.17;;;1.30;;
81487;SDS011;70897;52.464;13.428;2023-08-21T15:30:50;3.03;;;1.25;;
81487;SDS011;70897;52.464;13.428;2023-08-21T15:33:35;3.45;;;1.38;;
81487;SDS011;70897;52.464;13.428;2023-08-21T15:36:20;5.90;;;1.30;;
81487;SDS011;70897;52.464;13.428;2023-08-21T15:39:06;5.75;;;1.27;;
81487;SDS011;70897;52.464;13.428;2023-08-21T15:41:50;3.30;;;1.42;;
81487;SDS011;70897;52.464;13.428;2023-08-21T15:44:35;14.15;;;8.27;;
81487;SDS011;70897;52.464;13.428;2023-08-21T15:47:20;4.60;;;1.52;;
81487;SDS011;70897;52.464;13.428;2023-08-21T15:50:06;6.78;;;3.13;;
81487;SDS011;70897;52.464;13.428;2023-08-21T15:52:51;3.90;;;1.50;;
81487;SDS011;70897;52.464;13.428;2023-08-21T15:55:36;4.78;;;1.10;;
81487;SDS011;70897;52.464;13.428;2023-08-21T15:58:21;4.55;;;1.35;;
81487;SDS011;70897;52.464;13.428;2023-08-21T16:01:06;3.80;;;1.20;;
81487;SDS011;70897;52.464;13.428;2023-08-21T16:03:51;4.25;;;1.35;;
81487;SDS011;70897;52.464;13.428;2023-08-21T16:06:36;3.92;;;1.35;;
81487;SDS011;70897;52.464;13.428;2023-08-21T16:09:21;4.13;;;1.63;;
81487;SDS011;70897;52.464;13.428;2023-08-21T16:12:06;5.25;;;1.60;;
81487;SDS011;70897;52.464;13.428;2023-08-21T16:14:51;4.75;;;1.55;;
81487;SDS011;70897;52.464;13.428;2023-08-21T16:17:36;2.38;;;1.27;;
81487;SDS011;70897;52.464;13.428;2023-08-21T16:20:21;2.85;;;1.38;;